Time;durP1;ratioP1;P1;durP2;ratioP2;P2;SDS_P1;SDS_P2;PMS_P1;PMS_P2;Temp;Humidity;BMP_temperature;BMP_pressure;BME280_temperature;BME280_humidity;BME280_pressure;Samples;Min_cycle;Max_cycle;Signal;HPM_P1;HPM_P2
2023/12/12 00:00:46;;;;;;;;;;;;;;;-144.99;100.00;52684.53;5046021;28;20004;-70
2023/12/12 00:03:13;;;;;;;;;;;;;;;-144.99;100.00;52721.22;5045774;28;20015;-70
2023/12/12 00:05:39;;;;;;;;;;;;;;;-144.99;100.00;52639.69;5047232;28;20144;-70
2023/12/12 00:08:07;;;;;;;;;;;;;;;-144.99;100.00;52635.63;5041183;28;20021;-69
2023/12/12 00:10:34;;;;;;;;;;;;;;;-144.99;100.00;52680.47;5041101;28;19979;-72
2023/12/12 00:13:00;;;;;;;;;;;;;;;-144.99;100.00;52684.53;4695551;28;10000480;-69
2023/12/12 00:15:26;;;;;;;;;;;;;;;-144.99;100.00;52696.78;5041019;28;19929;-71
2023/12/12 00:17:53;;;;;;;;;;;;;;;-144.99;100.00;52680.47;5046373;28;20019;-70
2023/12/12 00:20:20;;;;;;;;;;;;;;;-144.99;100.00;52680.47;5052060;28;19925;-69
2023/12/12 00:22:46;;;;;;;;;;;;;;;-144.99;100.00;52676.38;5044215;28;19932;-68
2023/12/12 00:25:14;;;;;;;;;;;;;;;-144.99;100.00;52660.09;5047062;28;20031;-69
2023/12/12 00:27:40;;;;;;;;;;;;;;;-144.99;100.00;52680.47;5042960;28;20592;-68
2023/12/12 00:30:08;;;;;;;;;;;;;;;-144.99;100.00;52709.00;5047250;28;20023;-68
2023/12/12 00:32:34;;;;;;;;;;;;;;;-144.99;100.00;52692.69;5048685;28;20530;-69
2023/12/12 00:35:01;;;;;;;;;;;;;;;-144.99;100.00;52700.84;5060186;28;19947;-70
2023/12/12 00:37:27;;;;;;;;;;;;;;;-144.99;100.00;52656.00;5071952;28;19935;-70
2023/12/12 00:39:54;;;;;;;;;;;;;;;-144.99;100.00;52684.53;5075223;28;19951;-69
2023/12/12 00:42:21;;;;;;;;;;;;;;;-144.99;100.00;52664.16;5075552;28;19916;-69
2023/12/12 00:44:48;;;;;;;;;;;;;;;-144.99;100.00;52678.44;5077171;28;19916;-69
2023/12/12 00:47:14;;;;;;;;;;;;;;;-144.99;100.00;52670.28;5077553;28;19919;-70
2023/12/12 00:49:40;;;;;;;;;;;;;;;-144.99;100.00;52684.53;5073918;28;19913;-70
2023/12/12 00:52:08;;;;;;;;;;;;;;;-144.99;100.00;52656.00;5074962;28;19913;-69
2023/12/12 00:54:34;;;;;;;;;;;;;;;-144.99;100.00;52647.84;5075468;28;19937;-69
2023/12/12 00:57:01;;;;;;;;;;;;;;;-144.99;100.00;52660.09;5073405;28;19913;-69
2023/12/12 00:59:29;;;;;;;;;;;;;;;-144.99;100.00;52676.38;5075565;28;19913;-69
2023/12/12 01:01:55;;;;;;;;;;;;;;;-144.99;100.00;52680.47;5073906;28;19932;-69
2023/12/12 01:04:21;;;;;;;;;;;;;;;-144.99;100.00;52647.84;5053107;28;20371;-70
2023/12/12 01:06:48;;;;;;;;;;;;;;;-144.99;100.00;52719.19;5048930;28;19971;-69
2023/12/12 01:09:15;;;;;;;;;;;;;;;-144.99;100.00;52684.53;5058719;28;19982;-69
2023/12/12 01:11:41;;;;;;;;;;;;;;;-144.99;100.00;52700.84;5049439;28;20554;-70
2023/12/12 01:14:07;;;;;;;;;;;;;;;-144.99;100.00;52688.63;5049380;28;20040;-69
2023/12/12 01:16:35;;;;;;;;;;;;;;;-144.99;100.00;52680.47;5047547;28;19925;-69
2023/12/12 01:19:02;;;;;;;;;;;;;;;-144.99;100.00;52660.09;5075433;22;20356;-68
2023/12/12 01:21:28;;;;;;;;;;;;;;;-144.99;100.00;52696.78;5047578;28;19940;-68
2023/12/12 01:23:55;;;;;;;;;;;;;;;-144.99;100.00;52674.34;5047795;28;20360;-68
2023/12/12 01:26:22;;;;;;;;;;;;;;;-144.99;100.00;52704.94;5058143;28;19925;-67
2023/12/12 01:28:49;;;;;;;;;;;;;;;-144.99;100.00;52704.94;5067578;28;19964;-67
2023/12/12 01:31:15;;;;;;;;;;;;;;;-144.99;100.00;52676.38;5066866;28;20415;-67
2023/12/12 01:33:43;;;;;;;;;;;;;;;-144.99;100.00;52688.63;5068230;28;19982;-66
2023/12/12 01:36:10;;;;;;;;;;;;;;;-144.99;100.00;52709.00;5066754;28;19968;-66
2023/12/12 01:38:37;;;;;;;;;;;;;;;-144.99;100.00;52680.47;5067558;28;19963;-66
2023/12/12 01:41:03;;;;;;;;;;;;;;;-144.99;100.00;52674.34;5067870;28;20373;-67
2023/12/12 01:43:30;;;;;;;;;;;;;;;-144.99;100.00;52688.63;5067531;28;20016;-67
2023/12/12 01:45:58;;;;;;;;;;;;;;;-144.99;100.00;52696.78;5066353;28;20039;-67
2023/12/12 01:48:24;;;;;;;;;;;;;;;-144.99;100.00;52676.38;5068988;28;19924;-67
2023/12/12 01:50:52;;;;;;;;;;;;;;;-144.99;100.00;52688.63;5071343;28;20020;-67
2023/12/12 01:53:20;;;;;;;;;;;;;;;-144.99;100.00;52668.22;5069408;28;19956;-67
2023/12/12 01:55:47;;;;;;;;;;;;;;;-144.99;100.00;52639.69;5074473;28;19928;-67
2023/12/12 01:58:14;;;;;;;;;;;;;;;-144.99;100.00;52674.34;5071974;28;19947;-67
2023/12/12 02:00:40;;;;;;;;;;;;;;;-144.99;100.00;52696.78;5072155;28;20013;-69
2023/12/12 02:03:07;;;;;;;;;;;;;;;-144.99;100.00;52676.38;5069155;28;20283;-68
2023/12/12 02:05:34;;;;;;;;;;;;;;;-144.99;100.00;52656.00;5073399;28;20397;-67
2023/12/12 02:08:02;;;;;;;;;;;;;;;-144.99;100.00;52674.34;5073249;28;19968;-66
2023/12/12 02:10:29;;;;;;;;;;;;;;;-144.99;100.00;52668.22;5073645;28;19999;-66
2023/12/12 02:12:55;;;;;;;;;;;;;;;-144.99;100.00;52668.22;5072762;28;20015;-66
2023/12/12 02:15:22;;;;;;;;;;;;;;;-144.99;100.00;52711.03;5048782;28;20338;-65
2023/12/12 02:17:49;;;;;;;;;;;;;;;-144.99;100.00;52688.63;5072100;28;20056;-65
2023/12/12 02:20:15;;;;;;;;;;;;;;;-144.99;100.00;52688.63;5070481;28;20015;-63
2023/12/12 02:22:44;;;;;;;;;;;;;;;-144.99;100.00;52668.22;5070731;28;20031;-64
2023/12/12 02:25:10;;;;;;;;;;;;;;;-144.99;100.00;52698.81;5068456;28;19983;-65
2023/12/12 02:27:37;;;;;;;;;;;;;;;-144.99;100.00;52717.16;5070377;28;19967;-63
2023/12/12 02:30:05;;;;;;;;;;;;;;;-144.99;100.00;52684.53;5070690;28;20023;-66
2023/12/12 02:32:32;;;;;;;;;;;;;;;-144.99;100.00;52668.22;5069366;28;19967;-66
2023/12/12 02:34:58;;;;;;;;;;;;;;;-144.99;100.00;52684.53;5066063;28;19936;-66
2023/12/12 02:37:25;;;;;;;;;;;;;;;-144.99;100.00;52662.13;5067802;28;20393;-66
2023/12/12 02:39:53;;;;;;;;;;;;;;;-144.99;100.00;52696.78;5069447;28;19994;-66
2023/12/12 02:42:19;;;;;;;;;;;;;;;-144.99;100.00;52668.22;5067862;28;20472;-67
2023/12/12 02:44:46;;;;;;;;;;;;;;;-144.99;100.00;52713.09;5068806;28;20018;-67
2023/12/12 02:47:12;;;;;;;;;;;;;;;-144.99;100.00;52674.34;5068796;28;19924;-68
2023/12/12 02:49:38;;;;;;;;;;;;;;;-144.99;100.00;52660.09;5069665;28;19936;-68
2023/12/12 02:52:05;;;;;;;;;;;;;;;-144.99;100.00;52704.94;5070249;28;19973;-68
2023/12/12 02:54:32;;;;;;;;;;;;;;;-144.99;100.00;52635.63;5071026;28;20317;-68
2023/12/12 02:56:59;;;;;;;;;;;;;;;-144.99;100.00;52664.16;5069862;28;20021;-67
2023/12/12 02:59:26;;;;;;;;;;;;;;;-144.99;100.00;52672.31;5070857;28;19974;-69
2023/12/12 03:01:52;;;;;;;;;;;;;;;-144.99;100.00;52656.00;5076040;28;19985;-68
2023/12/12 03:04:19;;;;;;;;;;;;;;;-144.99;100.00;52647.84;5068876;28;20015;-68
2023/12/12 03:06:45;;;;;;;;;;;;;;;-144.99;100.00;52672.31;5067891;28;19933;-70
2023/12/12 03:09:12;;;;;;;;;;;;;;;-144.99;100.00;52637.66;5064858;28;19978;-68
2023/12/12 03:11:38;;;;;;;;;;;;;;;-144.99;100.00;52713.09;5073898;28;19942;-67
2023/12/12 03:14:06;;;;;;;;;;;;;;;-144.99;100.00;52704.94;5064428;28;19929;-68
2023/12/12 03:16:32;;;;;;;;;;;;;;;-144.99;100.00;52684.53;5069088;28;19959;-67
2023/12/12 03:18:59;;;;;;;;;;;;;;;-144.99;100.00;52672.31;5069327;28;19977;-67
2023/12/12 03:21:25;;;;;;;;;;;;;;;-144.99;100.00;52660.09;5068409;28;20624;-72
2023/12/12 03:23:52;;;;;;;;;;;;;;;-144.99;100.00;52688.63;5079725;28;20090;-69
2023/12/12 03:26:17;;;;;;;;;;;;;;;-144.99;100.00;52664.16;5070201;28;20001;-69
2023/12/12 03:28:44;;;;;;;;;;;;;;;-144.99;100.00;52688.63;5071296;28;20330;-69
2023/12/12 03:31:12;;;;;;;;;;;;;;;-144.99;100.00;52684.53;5070564;28;19997;-69
2023/12/12 03:33:38;;;;;;;;;;;;;;;-144.99;100.00;52664.16;5081214;28;19963;-70
2023/12/12 03:36:07;;;;;;;;;;;;;;;-144.99;100.00;52684.53;5071443;28;19936;-69
2023/12/12 03:38:33;;;;;;;;;;;;;;;-144.99;100.00;52670.28;5070522;28;20099;-68
2023/12/12 03:41:00;;;;;;;;;;;;;;;-144.99;100.00;52704.94;5069169;28;20007;-69
2023/12/12 03:43:27;;;;;;;;;;;;;;;-144.99;100.00;52688.63;5069919;28;19928;-69
2023/12/12 03:45:53;;;;;;;;;;;;;;;-144.99;100.00;52656.00;5075117;28;19924;-69
2023/12/12 03:48:21;;;;;;;;;;;;;;;-144.99;100.00;52700.84;5074283;28;19925;-69
2023/12/12 03:50:49;;;;;;;;;;;;;;;-144.99;100.00;52696.78;5063477;28;19925;-70
2023/12/12 03:53:16;;;;;;;;;;;;;;;-144.99;100.00;52706.97;5069672;28;19928;-70
2023/12/12 03:55:42;;;;;;;;;;;;;;;-144.99;100.00;52684.53;5071406;28;19925;-70
2023/12/12 03:58:09;;;;;;;;;;;;;;;-144.99;100.00;52700.84;5071534;28;20006;-70
2023/12/12 04:00:35;;;;;;;;;;;;;;;-144.99;100.00;52715.13;5063380;28;19928;-69
2023/12/12 04:03:01;;;;;;;;;;;;;;;-144.99;100.00;52672.31;5064445;28;19929;-69
2023/12/12 04:05:29;;;;;;;;;;;;;;;-144.99;100.00;52680.47;5069734;28;19948;-72
2023/12/12 04:07:56;;;;;;;;;;;;;;;-144.99;100.00;52684.53;5069997;28;20318;-73
2023/12/12 04:10:22;;;;;;;;;;;;;;;-144.99;100.00;52623.38;5070402;28;19952;-71
2023/12/12 04:12:49;;;;;;;;;;;;;;;-144.99;100.00;52702.88;5070429;28;19972;-68
2023/12/12 04:15:15;;;;;;;;;;;;;;;-144.99;100.00;52690.66;5068027;28;19924;-66
2023/12/12 04:17:42;;;;;;;;;;;;;;;-144.99;100.00;52700.84;5069068;28;19968;-67
2023/12/12 04:20:12;;;;;;;;;;;;;;;-144.99;100.00;52688.63;5076693;28;19924;-66
2023/12/12 04:22:40;;;;;;;;;;;;;;;-144.99;100.00;52704.94;5060126;28;19972;-65
2023/12/12 04:25:07;;;;;;;;;;;;;;;-144.99;100.00;52690.66;5067914;28;20003;-64
2023/12/12 04:27:33;;;;;;;;;;;;;;;-144.99;100.00;52690.66;5068915;28;19994;-66
2023/12/12 04:30:00;;;;;;;;;;;;;;;-144.99;100.00;52651.94;5069436;28;19963;-65
2023/12/12 04:32:25;;;;;;;;;;;;;;;-144.99;100.00;52711.03;5068827;28;19971;-64
2023/12/12 04:34:52;;;;;;;;;;;;;;;-144.99;100.00;52656.00;5067460;28;19967;-64
2023/12/12 04:37:18;;;;;;;;;;;;;;;-144.99;100.00;52672.31;5067522;28;20191;-63
2023/12/12 04:39:46;;;;;;;;;;;;;;;-144.99;100.00;52684.53;5067033;28;20069;-63
2023/12/12 04:42:13;;;;;;;;;;;;;;;-144.99;100.00;52700.84;5067728;28;20023;-64
2023/12/12 04:44:41;;;;;;;;;;;;;;;-144.99;100.00;52660.09;5067376;28;19924;-65
2023/12/12 04:47:07;;;;;;;;;;;;;;;-144.99;100.00;52668.22;5068349;28;20020;-64
2023/12/12 04:49:34;;;;;;;;;;;;;;;-144.99;100.00;52660.09;5068330;28;19936;-64
2023/12/12 04:52:01;;;;;;;;;;;;;;;-144.99;100.00;52676.38;5068282;28;20031;-64
2023/12/12 04:54:27;;;;;;;;;;;;;;;-144.99;100.00;52690.66;5065038;28;20348;-66
2023/12/12 04:56:56;;;;;;;;;;;;;;;-144.99;100.00;52635.63;5066584;28;19956;-67
2023/12/12 04:59:23;;;;;;;;;;;;;;;-144.99;100.00;52647.84;5067978;28;20375;-67
2023/12/12 05:01:49;;;;;;;;;;;;;;;-144.99;100.00;52656.00;5067058;28;20023;-67
2023/12/12 05:04:16;;;;;;;;;;;;;;;-144.99;100.00;52692.69;5068039;28;20023;-67
2023/12/12 05:06:44;;;;;;;;;;;;;;;-144.99;100.00;52668.22;5067451;28;20228;-63
2023/12/12 05:09:11;;;;;;;;;;;;;;;-144.99;100.00;52682.50;5066514;28;19980;-62
2023/12/12 05:11:37;;;;;;;;;;;;;;;-144.99;100.00;52656.00;5077000;28;20388;-64
2023/12/12 05:14:06;;;;;;;;;;;;;;;-144.99;100.00;52680.47;5071044;28;19998;-61
2023/12/12 05:16:32;;;;;;;;;;;;;;;-144.99;100.00;52688.63;5067516;28;20389;-62
2023/12/12 05:18:59;;;;;;;;;;;;;;;-144.99;100.00;52684.53;5067514;28;19928;-61
2023/12/12 05:21:26;;;;;;;;;;;;;;;-144.99;100.00;52676.38;5073473;28;20248;-61
2023/12/12 05:23:52;;;;;;;;;;;;;;;-144.99;100.00;52653.97;5065861;28;20064;-62
2023/12/12 05:26:19;;;;;;;;;;;;;;;-144.99;100.00;52692.69;5060693;28;20447;-74
2023/12/12 05:28:46;;;;;;;;;;;;;;;-144.99;100.00;52660.09;5068505;28;19928;-69
2023/12/12 05:31:14;;;;;;;;;;;;;;;-144.99;100.00;52676.38;5076042;28;20434;-70
2023/12/12 05:33:40;;;;;;;;;;;;;;;-144.99;100.00;52688.63;5068261;28;19924;-69
2023/12/12 05:36:07;;;;;;;;;;;;;;;-144.99;100.00;52660.09;5073624;28;19978;-69
2023/12/12 05:38:34;;;;;;;;;;;;;;;-144.99;100.00;52668.22;5066793;28;19967;-68
2023/12/12 05:41:01;;;;;;;;;;;;;;;-144.99;100.00;52680.47;5066199;28;19928;-69
2023/12/12 05:43:27;;;;;;;;;;;;;;;-144.99;100.00;52680.47;5065094;28;20364;-69
2023/12/12 05:45:53;;;;;;;;;;;;;;;-144.99;100.00;52717.16;5061925;28;20211;-69
2023/12/12 05:48:21;;;;;;;;;;;;;;;-144.99;100.00;52700.84;5069169;28;20018;-68
2023/12/12 05:50:48;;;;;;;;;;;;;;;-144.99;100.00;52688.63;5066169;28;19980;-69
2023/12/12 05:53:15;;;;;;;;;;;;;;;-144.99;100.00;52668.22;5066653;28;19966;-68
2023/12/12 05:55:41;;;;;;;;;;;;;;;-144.99;100.00;52649.88;5067761;28;20313;-68
2023/12/12 05:58:08;;;;;;;;;;;;;;;-144.99;100.00;52680.47;5067975;28;20070;-68
2023/12/12 06:00:34;;;;;;;;;;;;;;;-144.99;100.00;52688.63;5066350;28;19967;-68
2023/12/12 06:03:01;;;;;;;;;;;;;;;-144.99;100.00;52656.00;5067493;28;19971;-68
2023/12/12 06:05:29;;;;;;;;;;;;;;;-144.99;100.00;52668.22;5067482;28;20382;-68
2023/12/12 06:07:56;;;;;;;;;;;;;;;-144.99;100.00;52647.84;5066655;28;20230;-69
2023/12/12 06:10:22;;;;;;;;;;;;;;;-144.99;100.00;52696.78;5067120;28;20011;-69
2023/12/12 06:12:49;;;;;;;;;;;;;;;-144.99;100.00;52623.38;5067698;28;20349;-69
2023/12/12 06:15:15;;;;;;;;;;;;;;;-144.99;100.00;52656.00;5075255;28;20022;-68
2023/12/12 06:17:42;;;;;;;;;;;;;;;-144.99;100.00;52656.00;5066694;28;20019;-68
2023/12/12 06:20:08;;;;;;;;;;;;;;;-144.99;100.00;52688.63;5067807;28;20039;-68
2023/12/12 06:22:36;;;;;;;;;;;;;;;-144.99;100.00;52660.09;5067224;28;19978;-68
2023/12/12 06:25:03;;;;;;;;;;;;;;;-144.99;100.00;52676.38;5066538;28;19929;-68
2023/12/12 06:27:29;;;;;;;;;;;;;;;-144.99;100.00;52645.81;5064919;28;19994;-68
2023/12/12 06:29:56;;;;;;;;;;;;;;;-144.99;100.00;52656.00;5066036;28;19929;-72
2023/12/12 06:32:23;;;;;;;;;;;;;;;-144.99;100.00;52688.63;4715992;28;10000380;-72
2023/12/12 06:34:50;;;;;;;;;;;;;;;-144.99;100.00;52651.94;5068129;28;20448;-72
2023/12/12 06:37:16;;;;;;;;;;;;;;;-144.99;100.00;52670.28;5063572;28;19929;-72
2023/12/12 06:39:44;;;;;;;;;;;;;;;-144.99;100.00;52680.47;5063978;28;20161;-71
2023/12/12 06:42:11;;;;;;;;;;;;;;;-144.99;100.00;52647.84;5064676;28;19990;-72
2023/12/12 06:44:38;;;;;;;;;;;;;;;-144.99;100.00;52684.53;5060251;28;20314;-72
2023/12/12 06:47:04;;;;;;;;;;;;;;;-144.99;100.00;52692.69;5042314;28;19928;-72
2023/12/12 06:49:32;;;;;;;;;;;;;;;-144.99;100.00;52660.09;5067293;28;20038;-72
2023/12/12 06:52:00;;;;;;;;;;;;;;;-144.99;100.00;52676.38;5066313;28;19939;-71
2023/12/12 06:54:27;;;;;;;;;;;;;;;-144.99;100.00;52700.84;5075585;28;19940;-71
2023/12/12 06:56:55;;;;;;;;;;;;;;;-144.99;100.00;52662.13;5067735;28;19935;-71
2023/12/12 06:59:21;;;;;;;;;;;;;;;-144.99;100.00;52631.53;5067447;28;20329;-71
2023/12/12 07:01:48;;;;;;;;;;;;;;;-144.99;100.00;52686.59;5069424;28;20019;-71
2023/12/12 07:04:14;;;;;;;;;;;;;;;-144.99;100.00;52637.66;5067672;28;20307;-71
2023/12/12 07:06:41;;;;;;;;;;;;;;;-144.99;100.00;52668.22;5068821;28;20015;-71
2023/12/12 07:09:10;;;;;;;;;;;;;;;-144.99;100.00;52623.38;5068572;28;19931;-71
2023/12/12 07:11:37;;;;;;;;;;;;;;;-144.99;100.00;52676.38;5062353;28;20344;-71
2023/12/12 07:14:05;;;;;;;;;;;;;;;-144.99;100.00;52715.13;5064988;28;19947;-71
2023/12/12 07:16:31;;;;;;;;;;;;;;;-144.99;100.00;52700.84;5077992;28;20003;-71
2023/12/12 07:18:58;;;;;;;;;;;;;;;-144.99;100.00;52643.78;5090326;22;20257;-69
2023/12/12 07:21:24;;;;;;;;;;;;;;;-144.99;100.00;52668.22;5080292;28;19950;-70
2023/12/12 07:23:51;;;;;;;;;;;;;;;-144.99;100.00;52704.94;5054728;28;19982;-70
2023/12/12 07:26:21;;;;;;;;;;;;;;;-144.99;100.00;52684.53;5079846;28;19974;-70
2023/12/12 07:28:47;;;;;;;;;;;;;;;-144.99;100.00;52692.69;5074806;28;19928;-69
2023/12/12 07:31:15;;;;;;;;;;;;;;;-144.99;100.00;52688.63;5077922;28;20039;-70
2023/12/12 07:33:42;;;;;;;;;;;;;;;-144.99;100.00;52686.59;5073013;28;19928;-69
2023/12/12 07:36:08;;;;;;;;;;;;;;;-144.99;100.00;52684.53;5074110;28;19925;-70
2023/12/12 07:38:35;;;;;;;;;;;;;;;-144.99;100.00;52623.38;5067261;28;19989;-70
2023/12/12 07:41:01;;;;;;;;;;;;;;;-144.99;100.00;52704.94;5077011;28;20344;-69
2023/12/12 07:43:28;;;;;;;;;;;;;;;-144.99;100.00;52635.63;5073136;28;19975;-70
2023/12/12 07:45:54;;;;;;;;;;;;;;;-144.99;100.00;52651.94;5087366;28;19954;-70
2023/12/12 07:48:22;;;;;;;;;;;;;;;-144.99;100.00;52676.38;5075252;28;19924;-69
2023/12/12 07:50:49;;;;;;;;;;;;;;;-144.99;100.00;52668.22;5088618;28;19939;-70
2023/12/12 07:53:16;;;;;;;;;;;;;;;-144.99;100.00;52696.78;5085693;28;20343;-70
2023/12/12 07:55:42;;;;;;;;;;;;;;;-144.99;100.00;52684.53;5084242;28;19932;-69
2023/12/12 07:58:09;;;;;;;;;;;;;;;-144.99;100.00;52668.22;5084010;28;20437;-69
2023/12/12 08:00:35;;;;;;;;;;;;;;;-144.99;100.00;52700.84;5082494;28;19924;-70
2023/12/12 08:03:03;;;;;;;;;;;;;;;-144.99;100.00;52660.09;5090441;28;19951;-69
2023/12/12 08:05:31;;;;;;;;;;;;;;;-144.99;100.00;52666.19;5098402;28;19932;-69
2023/12/12 08:08:01;;;;;;;;;;;;;;;-144.99;100.00;52678.44;5089221;28;19928;-70
2023/12/12 08:10:28;;;;;;;;;;;;;;;-144.99;100.00;52676.38;5094890;28;20191;-69
2023/12/12 08:12:54;;;;;;;;;;;;;;;-144.99;100.00;52653.97;5096386;28;20262;-68
2023/12/12 08:15:21;;;;;;;;;;;;;;;-144.99;100.00;52680.47;5093593;28;19927;-70
2023/12/12 08:17:47;;;;;;;;;;;;;;;-144.99;100.00;52717.16;5091121;28;19935;-69
2023/12/12 08:20:14;;;;;;;;;;;;;;;-144.99;100.00;52662.13;5086072;28;19933;-70
2023/12/12 08:22:41;;;;;;;;;;;;;;;-144.99;100.00;52715.13;5074258;28;19963;-70
2023/12/12 08:25:08;;;;;;;;;;;;;;;-144.99;100.00;52664.16;5076497;28;19982;-69
2023/12/12 08:27:35;;;;;;;;;;;;;;;-144.99;100.00;52676.38;5069678;28;19971;-69
2023/12/12 08:30:04;;;;;;;;;;;;;;;-144.99;100.00;52672.31;5074970;28;19985;-69
2023/12/12 08:32:30;;;;;;;;;;;;;;;-144.99;100.00;52674.34;5068629;28;19932;-69
2023/12/12 08:34:57;;;;;;;;;;;;;;;-144.99;100.00;52684.53;5082297;28;20370;-69
2023/12/12 08:37:23;;;;;;;;;;;;;;;-144.99;100.00;52688.63;5080007;28;19924;-69
2023/12/12 08:39:51;;;;;;;;;;;;;;;-144.99;100.00;52676.38;5073167;28;19924;-70
2023/12/12 08:42:18;;;;;;;;;;;;;;;-144.99;100.00;52686.59;5078939;28;20008;-69
2023/12/12 08:44:44;;;;;;;;;;;;;;;-144.99;100.00;52676.38;5088542;28;19936;-69
2023/12/12 08:47:11;;;;;;;;;;;;;;;-144.99;100.00;52700.84;5064013;28;19932;-69
2023/12/12 08:49:38;;;;;;;;;;;;;;;-144.99;100.00;52676.38;5070997;28;20317;-67
2023/12/12 08:52:05;;;;;;;;;;;;;;;-144.99;100.00;52704.94;5073778;28;20370;-68
2023/12/12 08:54:32;;;;;;;;;;;;;;;-144.99;100.00;52670.28;5070133;28;19928;-67
2023/12/12 08:57:02;;;;;;;;;;;;;;;-144.99;100.00;52698.81;5075152;28;20443;-68
2023/12/12 08:59:28;;;;;;;;;;;;;;;-144.99;100.00;52668.22;5074009;28;19929;-67
2023/12/12 09:01:55;;;;;;;;;;;;;;;-144.99;100.00;52682.50;5074221;28;19967;-67
2023/12/12 09:04:21;;;;;;;;;;;;;;;-144.99;100.00;52651.94;5071087;28;20433;-67
2023/12/12 09:06:48;;;;;;;;;;;;;;;-144.99;100.00;52676.38;5074176;28;19993;-68
2023/12/12 09:09:15;;;;;;;;;;;;;;;-144.99;100.00;52704.94;5067558;28;19928;-67
2023/12/12 09:11:42;;;;;;;;;;;;;;;-144.99;100.00;52664.16;5067366;28;19979;-68
2023/12/12 09:14:09;;;;;;;;;;;;;;;-144.99;100.00;52668.22;5067223;28;20027;-67
2023/12/12 09:16:36;;;;;;;;;;;;;;;-144.99;100.00;52690.66;5063237;28;19925;-68
2023/12/12 09:19:03;;;;;;;;;;;;;;;-144.99;100.00;52668.22;5068401;28;20100;-68
2023/12/12 09:21:29;;;;;;;;;;;;;;;-144.99;100.00;52668.22;5067083;28;19928;-68
2023/12/12 09:23:56;;;;;;;;;;;;;;;-144.99;100.00;52690.66;5068178;28;20015;-68
2023/12/12 09:26:22;;;;;;;;;;;;;;;-144.99;100.00;52664.16;5065921;28;20350;-68
2023/12/12 09:28:49;;;;;;;;;;;;;;;-144.99;100.00;52651.94;5067777;28;19924;-68
2023/12/12 09:31:24;;;;;;;;;;;;;;;-144.99;100.00;52688.63;5067335;28;20023;-68
2023/12/12 09:33:51;;;;;;;;;;;;;;;-144.99;100.00;52668.22;5067696;28;20010;-68
2023/12/12 09:36:17;;;;;;;;;;;;;;;-144.99;100.00;52670.28;5071523;28;20023;-67
2023/12/12 09:38:44;;;;;;;;;;;;;;;-144.99;100.00;52627.47;5077915;28;19934;-70
2023/12/12 09:41:16;;;;;;;;;;;;;;;-144.99;100.00;52647.84;5074475;28;19968;-70
2023/12/12 09:43:43;;;;;;;;;;;;;;;-144.99;100.00;52639.69;5076150;28;20023;-70
2023/12/12 09:46:09;;;;;;;;;;;;;;;-144.99;100.00;52676.38;5067266;28;20386;-71
2023/12/12 09:48:38;;;;;;;;;;;;;;;-144.99;100.00;52643.78;5050633;28;19990;-70
2023/12/12 09:51:06;;;;;;;;;;;;;;;-144.99;100.00;52631.53;5067049;28;19940;-70
2023/12/12 09:53:35;;;;;;;;;;;;;;;-144.99;100.00;52688.63;5068296;28;20025;-70
2023/12/12 09:56:02;;;;;;;;;;;;;;;-144.99;100.00;52647.84;5065628;28;19936;-70
2023/12/12 09:58:29;;;;;;;;;;;;;;;-144.99;100.00;52609.13;5067732;28;20334;-69
2023/12/12 10:00:56;;;;;;;;;;;;;;;-144.99;100.00;52692.69;5066791;28;20380;-69
2023/12/12 10:03:23;;;;;;;;;;;;;;;-144.99;100.00;52704.94;5066045;28;20035;-70
2023/12/12 10:05:54;;;;;;;;;;;;;;;-144.99;100.00;52619.31;5060461;28;19998;-70
2023/12/12 10:08:21;;;;;;;;;;;;;;;-144.99;100.00;52662.13;5068194;28;19928;-70
2023/12/12 10:10:51;;;;;;;;;;;;;;;-144.99;100.00;52615.25;5072691;28;19925;-70
2023/12/12 10:13:18;;;;;;;;;;;;;;;-144.99;100.00;52656.00;5070746;28;20327;-70
2023/12/12 10:15:45;;;;;;;;;;;;;;;-144.99;100.00;52670.28;5061888;28;19932;-70
2023/12/12 10:18:12;;;;;;;;;;;;;;;-144.99;100.00;52680.47;5075226;28;19932;-70
2023/12/12 10:20:38;;;;;;;;;;;;;;;-144.99;100.00;52692.69;5071470;28;19936;-70
2023/12/12 10:23:06;;;;;;;;;;;;;;;-144.99;100.00;52684.53;5073449;28;19975;-70
2023/12/12 10:25:34;;;;;;;;;;;;;;;-144.99;100.00;52647.84;5073186;28;19980;-71
2023/12/12 10:28:00;;;;;;;;;;;;;;;-144.99;100.00;52672.31;5073509;28;20029;-69
2023/12/12 10:30:27;;;;;;;;;;;;;;;-144.99;100.00;52668.22;5079279;28;19997;-69
2023/12/12 10:32:54;;;;;;;;;;;;;;;-144.99;100.00;52692.69;5072976;28;19924;-71
2023/12/12 10:35:21;;;;;;;;;;;;;;;-144.99;100.00;52688.63;5079287;28;20013;-70
2023/12/12 10:37:48;;;;;;;;;;;;;;;-144.99;100.00;52676.38;5075353;28;20211;-69
2023/12/12 10:40:17;;;;;;;;;;;;;;;-144.99;100.00;52692.69;5085304;28;19928;-69
2023/12/12 10:42:44;;;;;;;;;;;;;;;-144.99;100.00;52660.09;5076234;28;19970;-70
2023/12/12 10:45:11;;;;;;;;;;;;;;;-144.99;100.00;52723.28;5076122;28;19964;-70
2023/12/12 10:47:42;;;;;;;;;;;;;;;-144.99;100.00;52692.69;5087125;28;20022;-70
2023/12/12 10:50:10;;;;;;;;;;;;;;;-144.99;100.00;52688.63;5087781;28;19947;-70
2023/12/12 10:52:38;;;;;;;;;;;;;;;-144.99;100.00;52717.16;4718961;28;10000107;-70
2023/12/12 10:55:06;;;;;;;;;;;;;;;-144.99;100.00;52660.09;5069571;28;19936;-70
2023/12/12 10:57:34;;;;;;;;;;;;;;;-144.99;100.00;52651.94;5075887;28;20117;-70
2023/12/12 11:00:11;;;;;;;;;;;;;;;-144.99;100.00;52647.84;5071293;28;19972;-68
2023/12/12 11:02:38;;;;;;;;;;;;;;;-144.99;100.00;52688.63;5065433;28;19928;-70
2023/12/12 11:05:05;;;;;;;;;;;;;;;-144.99;100.00;52688.63;5070350;28;20380;-69
2023/12/12 11:07:33;;;;;;;;;;;;;;;-144.99;100.00;52676.38;5091034;28;19928;-70
2023/12/12 11:09:59;;;;;;;;;;;;;;;-144.99;100.00;52680.47;5086303;28;19924;-71
2023/12/12 11:12:26;;;;;;;;;;;;;;;-144.99;100.00;52678.44;5098270;28;19928;-70
2023/12/12 11:14:55;;;;;;;;;;;;;;;-144.99;100.00;52631.53;5090283;28;20421;-69
2023/12/12 11:17:22;;;;;;;;;;;;;;;-144.99;100.00;52660.09;5086474;28;19932;-69
2023/12/12 11:19:48;;;;;;;;;;;;;;;-144.99;100.00;52688.63;5081690;28;19928;-69
2023/12/12 11:22:30;;;;;;;;;;;;;;;-144.99;100.00;52680.47;5080343;28;19932;-69
2023/12/12 11:25:00;;;;;;;;;;;;;;;-144.99;100.00;52664.16;5071257;28;19947;-69
2023/12/12 11:27:27;;;;;;;;;;;;;;;-144.99;100.00;52709.00;5070855;28;19929;-69
2023/12/12 11:29:56;;;;;;;;;;;;;;;-144.99;100.00;52643.78;5077739;28;19928;-70
2023/12/12 11:32:25;;;;;;;;;;;;;;;-144.99;100.00;52656.00;5074024;28;19928;-71
2023/12/12 11:34:52;;;;;;;;;;;;;;;-144.99;100.00;52690.66;5077057;28;20023;-70
2023/12/12 11:37:18;;;;;;;;;;;;;;;-144.99;100.00;52635.63;5078297;28;20023;-70
2023/12/12 11:39:49;;;;;;;;;;;;;;;-144.99;100.00;52647.84;5081447;28;19928;-70
2023/12/12 11:42:20;;;;;;;;;;;;;;;-144.99;100.00;52690.66;5069146;28;19929;-69
2023/12/12 11:44:49;;;;;;;;;;;;;;;-144.99;100.00;52692.69;5067556;28;19932;-70
2023/12/12 11:47:17;;;;;;;;;;;;;;;-144.99;100.00;52696.78;5069335;28;20356;-70
2023/12/12 11:49:44;;;;;;;;;;;;;;;-144.99;100.00;52672.31;5070878;28;19983;-69
2023/12/12 11:52:11;;;;;;;;;;;;;;;-144.99;100.00;52680.47;5068788;28;20382;-69
2023/12/12 11:54:38;;;;;;;;;;;;;;;-144.99;100.00;52668.22;5078066;28;19978;-69
2023/12/12 11:57:05;;;;;;;;;;;;;;;-144.99;100.00;52598.94;5068852;28;19929;-70
2023/12/12 11:59:32;;;;;;;;;;;;;;;-144.99;100.00;52651.94;5079413;28;19967;-69
2023/12/12 12:01:59;;;;;;;;;;;;;;;-144.99;100.00;52647.84;5068315;28;20009;-69
2023/12/12 12:04:27;;;;;;;;;;;;;;;-144.99;100.00;52639.69;5070314;28;19928;-69
2023/12/12 12:06:54;;;;;;;;;;;;;;;-144.99;100.00;52656.00;5078897;28;19934;-70
2023/12/12 12:09:20;;;;;;;;;;;;;;;-144.99;100.00;52647.84;5077465;28;19935;-69
2023/12/12 12:11:49;;;;;;;;;;;;;;;-144.99;100.00;52678.44;5081328;28;20005;-70
2023/12/12 12:14:21;;;;;;;;;;;;;;;-144.99;100.00;52643.78;5081318;28;20358;-69
2023/12/12 12:16:47;;;;;;;;;;;;;;;-144.99;100.00;52623.38;5073830;28;19927;-73